Time;durP1;ratioP1;P1;durP2;ratioP2;P2;SDS_P1;SDS_P2;PMS_P1;PMS_P2;Temp;Humidity;BMP_temperature;BMP_pressure;BME280_temperature;BME280_humidity;BME280_pressure;Samples;Min_cycle;Max_cycle;Signal;HPM_P1;HPM_P2
2023/04/29 00:01:35;;;;;;;3.03;1.90;;;;;;;;;;5113494;28;20063;-66
2023/04/29 00:04:01;;;;;;;4.32;2.22;;;;;;;;;;5113643;28;20375;-66
2023/04/29 00:06:28;;;;;;;3.80;1.63;;;;;;;;;;5113456;27;20020;-66
2023/04/29 00:08:54;;;;;;;3.95;2.30;;;;;;;;;;5113342;28;20046;-66
2023/04/29 00:11:20;;;;;;;3.65;2.22;;;;;;;;;;5113063;28;20070;-66
2023/04/29 00:13:46;;;;;;;4.18;1.95;;;;;;;;;;5113113;28;20076;-66
2023/04/29 00:16:12;;;;;;;4.72;2.38;;;;;;;;;;5113412;28;20102;-67
2023/04/29 00:18:38;;;;;;;5.80;2.50;;;;;;;;;;5113066;28;20475;-66
2023/04/29 00:21:04;;;;;;;5.00;2.70;;;;;;;;;;5112781;28;20036;-66
2023/04/29 00:23:31;;;;;;;3.17;2.10;;;;;;;;;;5113446;28;20035;-66
2023/04/29 00:25:57;;;;;;;4.03;2.60;;;;;;;;;;5112927;28;20567;-66
2023/04/29 00:28:24;;;;;;;4.25;2.35;;;;;;;;;;5113150;28;20032;-66
2023/04/29 00:30:50;;;;;;;4.80;2.70;;;;;;;;;;5112610;28;20046;-66
2023/04/29 00:33:16;;;;;;;4.50;2.28;;;;;;;;;;5112988;28;20024;-66
2023/04/29 00:35:42;;;;;;;4.18;2.75;;;;;;;;;;5112432;28;20035;-66
2023/04/29 00:38:08;;;;;;;4.03;2.28;;;;;;;;;;5113003;27;20028;-66
2023/04/29 00:40:34;;;;;;;3.70;2.65;;;;;;;;;;5112697;28;20049;-66
2023/04/29 00:43:00;;;;;;;4.38;3.13;;;;;;;;;;5113128;28;20035;-65
2023/04/29 00:45:26;;;;;;;4.93;3.13;;;;;;;;;;5112645;28;20027;-66
2023/04/29 00:47:52;;;;;;;3.92;2.95;;;;;;;;;;5112318;28;20485;-66
2023/04/29 00:50:18;;;;;;;7.13;3.50;;;;;;;;;;5112447;28;20028;-66
2023/04/29 00:52:44;;;;;;;6.47;3.45;;;;;;;;;;5112407;28;20027;-66
2023/04/29 00:55:14;;;;;;;6.45;4.03;;;;;;;;;;5112270;28;20027;-66
2023/04/29 00:57:41;;;;;;;4.60;3.38;;;;;;;;;;5112374;28;20514;-66
2023/04/29 01:00:08;;;;;;;6.97;4.35;;;;;;;;;;5112433;28;20028;-66
2023/04/29 01:02:35;;;;;;;5.20;3.90;;;;;;;;;;5112012;28;20055;-66
2023/04/29 01:05:01;;;;;;;5.65;3.60;;;;;;;;;;5112584;28;20047;-66
2023/04/29 01:07:35;;;;;;;6.05;4.03;;;;;;;;;;5112320;28;20483;-66
2023/04/29 01:10:03;;;;;;;7.38;4.47;;;;;;;;;;5111857;28;20483;-66
2023/04/29 01:12:35;;;;;;;6.38;4.47;;;;;;;;;;5112507;28;20114;-66
2023/04/29 01:15:05;;;;;;;5.78;3.80;;;;;;;;;;5112219;28;20076;-66
2023/04/29 01:17:36;;;;;;;7.88;5.00;;;;;;;;;;5112438;28;20050;-66
2023/04/29 01:20:04;;;;;;;7.00;4.47;;;;;;;;;;5112185;28;20105;-66
2023/04/29 01:22:30;;;;;;;7.13;4.63;;;;;;;;;;5112388;28;20355;-66
2023/04/29 01:24:56;;;;;;;6.03;4.57;;;;;;;;;;5111381;28;20483;-66
2023/04/29 01:27:30;;;;;;;7.55;5.13;;;;;;;;;;5111679;28;20024;-66
2023/04/29 01:30:00;;;;;;;8.18;5.13;;;;;;;;;;5111587;28;20028;-66
2023/04/29 01:32:30;;;;;;;6.22;4.28;;;;;;;;;;5111829;28;20028;-66
2023/04/29 01:35:00;;;;;;;7.53;5.75;;;;;;;;;;5111564;28;20034;-66
2023/04/29 01:37:33;;;;;;;9.02;5.28;;;;;;;;;;5111760;28;20023;-66
2023/04/29 01:40:15;;;;;;;7.78;5.60;;;;;;;;;;5112121;28;20051;-66
2023/04/29 01:42:44;;;;;;;7.93;5.03;;;;;;;;;;5111070;28;20035;-67
2023/04/29 01:45:11;;;;;;;8.88;5.50;;;;;;;;;;5111716;28;20027;-67
2023/04/29 01:47:37;;;;;;;8.77;5.65;;;;;;;;;;5111248;28;20062;-67
2023/04/29 01:50:03;;;;;;;7.97;5.50;;;;;;;;;;5111424;28;20108;-68
2023/04/29 01:52:29;;;;;;;9.07;5.18;;;;;;;;;;5111910;28;20479;-67
2023/04/29 01:54:56;;;;;;;5.82;4.63;;;;;;;;;;5111288;28;20028;-67
2023/04/29 01:57:21;;;;;;;9.15;5.75;;;;;;;;;;5111560;28;20432;-68
2023/04/29 01:59:47;;;;;;;6.18;4.30;;;;;;;;;;5111291;28;20051;-67
2023/04/29 02:02:14;;;;;;;7.47;5.18;;;;;;;;;;5111531;28;20023;-67
2023/04/29 02:04:41;;;;;;;7.22;5.28;;;;;;;;;;5110975;28;20024;-67
2023/04/29 02:07:07;;;;;;;9.32;5.68;;;;;;;;;;5111362;28;20384;-67
2023/04/29 02:09:33;;;;;;;8.40;5.65;;;;;;;;;;5111107;28;20016;-67
2023/04/29 02:11:59;;;;;;;10.63;7.32;;;;;;;;;;5111434;28;20609;-67
2023/04/29 02:14:25;;;;;;;7.28;5.35;;;;;;;;;;5111321;28;20020;-68
2023/04/29 02:16:51;;;;;;;9.70;6.55;;;;;;;;;;5111205;28;20066;-67
2023/04/29 02:19:17;;;;;;;8.43;4.88;;;;;;;;;;5111268;28;20040;-67
2023/04/29 02:21:43;;;;;;;7.30;4.88;;;;;;;;;;5111065;28;20089;-67
2023/04/29 02:24:09;;;;;;;8.07;5.03;;;;;;;;;;5111353;28;20024;-67
2023/04/29 02:26:37;;;;;;;7.63;5.43;;;;;;;;;;5110712;28;20142;-67
2023/04/29 02:29:03;;;;;;;9.45;5.82;;;;;;;;;;5114737;28;20035;-67
2023/04/29 02:31:29;;;;;;;8.52;5.90;;;;;;;;;;5115721;28;20039;-66
2023/04/29 02:33:54;;;;;;;7.50;4.90;;;;;;;;;;5115153;28;20023;-67
2023/04/29 02:36:20;;;;;;;8.15;5.45;;;;;;;;;;5115363;28;20023;-67
2023/04/29 02:38:49;;;;;;;7.47;5.22;;;;;;;;;;5114610;28;20031;-67
2023/04/29 02:41:18;;;;;;;7.13;4.95;;;;;;;;;;5115129;28;20476;-68
2023/04/29 02:43:44;;;;;;;7.32;5.68;;;;;;;;;;5114950;28;20073;-67
2023/04/29 02:46:10;;;;;;;9.90;6.45;;;;;;;;;;5115171;28;20377;-67
2023/04/29 02:48:36;;;;;;;8.48;5.72;;;;;;;;;;5114933;28;20089;-67
2023/04/29 02:51:02;;;;;;;9.23;6.00;;;;;;;;;;5115208;28;20044;-67
2023/04/29 02:53:28;;;;;;;8.85;5.47;;;;;;;;;;5114938;28;20069;-67
2023/04/29 02:55:54;;;;;;;10.57;6.70;;;;;;;;;;5114793;28;20028;-67
2023/04/29 02:58:21;;;;;;;8.80;6.13;;;;;;;;;;5114877;28;20023;-67
2023/04/29 03:00:47;;;;;;;8.77;6.35;;;;;;;;;;5114691;28;20024;-67
2023/04/29 03:03:12;;;;;;;10.02;6.03;;;;;;;;;;5114863;28;20023;-67
2023/04/29 03:05:38;;;;;;;9.23;5.93;;;;;;;;;;5114435;28;20031;-68
2023/04/29 03:08:04;;;;;;;8.63;6.25;;;;;;;;;;5114489;28;20015;-67
2023/04/29 03:10:30;;;;;;;9.35;6.30;;;;;;;;;;5115069;27;20044;-67
2023/04/29 03:12:56;;;;;;;8.70;5.97;;;;;;;;;;5114488;28;20034;-67
2023/04/29 03:15:22;;;;;;;10.40;6.38;;;;;;;;;;5114391;28;20057;-67
2023/04/29 03:17:48;;;;;;;8.27;6.30;;;;;;;;;;5114451;28;20023;-67
2023/04/29 03:20:14;;;;;;;9.98;6.90;;;;;;;;;;5113945;28;20115;-67
2023/04/29 03:22:40;;;;;;;7.60;5.85;;;;;;;;;;5112956;28;20097;-68
2023/04/29 03:25:06;;;;;;;10.98;6.72;;;;;;;;;;5111638;28;20024;-67
2023/04/29 03:27:33;;;;;;;10.25;6.57;;;;;;;;;;5113345;28;20023;-67
2023/04/29 03:29:58;;;;;;;11.07;7.38;;;;;;;;;;5112802;28;20036;-67
2023/04/29 03:32:25;;;;;;;8.93;6.72;;;;;;;;;;5112783;28;20042;-67
2023/04/29 03:34:51;;;;;;;8.70;6.55;;;;;;;;;;5112808;28;20099;-67
2023/04/29 03:37:17;;;;;;;10.60;7.93;;;;;;;;;;5112718;28;20102;-66
2023/04/29 03:39:43;;;;;;;11.10;8.77;;;;;;;;;;5112604;28;20020;-67
2023/04/29 03:42:09;;;;;;;8.57;6.47;;;;;;;;;;5112622;28;20043;-67
2023/04/29 03:44:35;;;;;;;10.55;7.03;;;;;;;;;;5112585;28;20502;-65
2023/04/29 03:47:01;;;;;;;8.95;6.47;;;;;;;;;;5112810;28;20027;-66
2023/04/29 03:49:27;;;;;;;9.55;6.78;;;;;;;;;;5112630;28;20112;-66
2023/04/29 03:51:53;;;;;;;8.98;6.30;;;;;;;;;;5112840;28;20027;-66
2023/04/29 03:54:19;;;;;;;9.43;7.75;;;;;;;;;;5112328;28;20341;-66
2023/04/29 03:56:45;;;;;;;8.88;6.47;;;;;;;;;;5112610;28;20039;-66
2023/04/29 03:59:11;;;;;;;8.68;6.43;;;;;;;;;;5112175;28;20484;-66
2023/04/29 04:01:37;;;;;;;10.10;7.05;;;;;;;;;;5112202;28;20034;-65
2023/04/29 04:04:03;;;;;;;11.13;8.10;;;;;;;;;;5112457;28;20540;-66
2023/04/29 04:06:30;;;;;;;8.30;6.68;;;;;;;;;;5112442;28;20069;-66
2023/04/29 04:08:56;;;;;;;11.38;7.57;;;;;;;;;;5112513;28;20089;-66
2023/04/29 04:11:22;;;;;;;11.52;8.23;;;;;;;;;;5112051;28;20039;-66
2023/04/29 04:13:48;;;;;;;10.10;8.10;;;;;;;;;;5112221;28;20039;-66
2023/04/29 04:16:14;;;;;;;10.02;7.50;;;;;;;;;;5111795;28;20037;-66
2023/04/29 04:18:40;;;;;;;8.50;6.90;;;;;;;;;;5111980;28;20089;-66
2023/04/29 04:21:10;;;;;;;7.97;6.10;;;;;;;;;;5069708;28;1211160;-66
2023/04/29 04:23:39;;;;;;;8.15;5.90;;;;;;;;;;5113156;28;20030;-66
2023/04/29 04:26:05;;;;;;;9.48;7.05;;;;;;;;;;5112972;28;20023;-66
2023/04/29 04:28:31;;;;;;;10.65;8.10;;;;;;;;;;5112981;28;20510;-66
2023/04/29 04:30:57;;;;;;;8.30;5.82;;;;;;;;;;5112913;28;20036;-66
2023/04/29 04:33:23;;;;;;;10.13;7.78;;;;;;;;;;5112843;28;20023;-66
2023/04/29 04:35:49;;;;;;;9.85;6.88;;;;;;;;;;5113074;28;20495;-66
2023/04/29 04:38:16;;;;;;;9.55;6.45;;;;;;;;;;5112651;28;20403;-66
2023/04/29 04:40:42;;;;;;;9.82;7.22;;;;;;;;;;5112846;28;20031;-66
2023/04/29 04:43:08;;;;;;;9.93;7.38;;;;;;;;;;5112314;28;20480;-66
2023/04/29 04:45:35;;;;;;;9.63;7.15;;;;;;;;;;5113034;28;20027;-66
2023/04/29 04:48:01;;;;;;;7.68;6.50;;;;;;;;;;5112787;28;20016;-66
2023/04/29 04:50:30;;;;;;;8.48;7.13;;;;;;;;;;5111501;27;20035;-65
2023/04/29 04:52:56;;;;;;;6.82;5.60;;;;;;;;;;5112654;28;20370;-65
2023/04/29 04:55:23;;;;;;;9.02;7.28;;;;;;;;;;5112307;28;20081;-65
2023/04/29 04:57:49;;;;;;;8.50;6.85;;;;;;;;;;5112513;28;20028;-65
2023/04/29 05:00:15;;;;;;;10.18;6.80;;;;;;;;;;5111806;28;20445;-65
2023/04/29 05:02:41;;;;;;;9.57;8.52;;;;;;;;;;5112643;28;20106;-66
2023/04/29 05:05:07;;;;;;;8.93;8.02;;;;;;;;;;5112159;28;20462;-65
2023/04/29 05:07:34;;;;;;;8.90;7.15;;;;;;;;;;5112647;28;20103;-66
2023/04/29 05:10:01;;;;;;;8.20;6.18;;;;;;;;;;5111884;28;20096;-66
2023/04/29 05:12:29;;;;;;;11.50;7.65;;;;;;;;;;5112306;27;20026;-65
2023/04/29 05:14:55;;;;;;;11.68;8.63;;;;;;;;;;5111758;28;20039;-66
2023/04/29 05:17:21;;;;;;;10.77;8.18;;;;;;;;;;5111944;28;20024;-66
2023/04/29 05:19:47;;;;;;;8.88;6.75;;;;;;;;;;5111876;28;20482;-65
2023/04/29 05:22:13;;;;;;;10.75;8.90;;;;;;;;;;5111529;28;20054;-65
2023/04/29 05:24:39;;;;;;;9.77;7.53;;;;;;;;;;5111874;28;20542;-66
2023/04/29 05:27:05;;;;;;;8.70;6.18;;;;;;;;;;5112047;28;20386;-65
2023/04/29 05:29:31;;;;;;;9.60;6.50;;;;;;;;;;5111817;28;20032;-68
2023/04/29 05:31:58;;;;;;;7.90;5.90;;;;;;;;;;5111981;28;20563;-67
2023/04/29 05:34:24;;;;;;;8.98;7.20;;;;;;;;;;5111130;27;20395;-64
2023/04/29 05:36:50;;;;;;;9.88;7.75;;;;;;;;;;5111562;28;20027;-67
2023/04/29 05:39:16;;;;;;;10.02;8.25;;;;;;;;;;5111525;27;20030;-65
2023/04/29 05:41:42;;;;;;;9.32;7.40;;;;;;;;;;5111753;28;20031;-68
2023/04/29 05:44:08;;;;;;;8.15;7.28;;;;;;;;;;5111459;28;20102;-67
2023/04/29 05:46:34;;;;;;;7.55;6.70;;;;;;;;;;5111973;28;20103;-67
2023/04/29 05:49:00;;;;;;;9.15;6.82;;;;;;;;;;5111340;28;20387;-67
2023/04/29 05:51:27;;;;;;;9.25;7.15;;;;;;;;;;5111413;28;20038;-67
2023/04/29 05:53:53;;;;;;;7.50;6.68;;;;;;;;;;5091252;28;20024;-67
2023/04/29 05:56:19;;;;;;;8.30;6.60;;;;;;;;;;5090925;28;20040;-67
2023/04/29 05:58:45;;;;;;;9.75;7.15;;;;;;;;;;5091070;28;20026;-65
2023/04/29 06:01:11;;;;;;;7.30;5.88;;;;;;;;;;5090889;28;20040;-68
2023/04/29 06:03:37;;;;;;;9.45;6.97;;;;;;;;;;5091441;28;20027;-67
2023/04/29 06:06:03;;;;;;;9.18;7.28;;;;;;;;;;5091221;28;20387;-67
2023/04/29 06:08:29;;;;;;;7.93;6.78;;;;;;;;;;5111314;28;20046;-67
2023/04/29 06:10:55;;;;;;;11.30;8.27;;;;;;;;;;5111222;28;20384;-67
2023/04/29 06:13:21;;;;;;;8.80;7.32;;;;;;;;;;5111675;28;20167;-67
2023/04/29 06:15:47;;;;;;;11.18;7.55;;;;;;;;;;5110886;28;20383;-67
2023/04/29 06:18:13;;;;;;;10.60;8.35;;;;;;;;;;5111223;28;20031;-67
2023/04/29 06:20:39;;;;;;;10.18;7.80;;;;;;;;;;5111336;28;20031;-67
2023/04/29 06:23:06;;;;;;;10.77;6.60;;;;;;;;;;5111349;28;20455;-67
2023/04/29 06:25:32;;;;;;;7.90;6.30;;;;;;;;;;5111202;28;20391;-67
2023/04/29 06:27:58;;;;;;;8.98;6.70;;;;;;;;;;5110852;28;20030;-67
2023/04/29 06:30:24;;;;;;;9.90;6.05;;;;;;;;;;5110346;28;20038;-67
2023/04/29 06:32:50;;;;;;;11.15;6.30;;;;;;;;;;5111313;28;20026;-68
2023/04/29 06:35:16;;;;;;;9.18;6.80;;;;;;;;;;5110982;28;20024;-67
2023/04/29 06:37:42;;;;;;;9.18;6.28;;;;;;;;;;5111260;28;20028;-67
2023/04/29 06:40:08;;;;;;;9.52;6.13;;;;;;;;;;5110662;28;20092;-66
2023/04/29 06:42:35;;;;;;;10.77;6.68;;;;;;;;;;5110765;28;20023;-67
2023/04/29 06:45:01;;;;;;;8.02;5.35;;;;;;;;;;5110766;28;20038;-67
2023/04/29 06:47:27;;;;;;;9.52;6.78;;;;;;;;;;5111270;28;20024;-67
2023/04/29 06:49:53;;;;;;;7.55;5.88;;;;;;;;;;5111017;28;20035;-67
2023/04/29 06:52:19;;;;;;;7.78;5.32;;;;;;;;;;5110271;28;20023;-67
2023/04/29 06:54:45;;;;;;;12.38;6.45;;;;;;;;;;5111132;28;20031;-64
2023/04/29 06:57:11;;;;;;;9.35;6.68;;;;;;;;;;5111036;28;20467;-67
2023/04/29 06:59:37;;;;;;;7.10;6.05;;;;;;;;;;5111509;28;20390;-67
2023/04/29 07:02:03;;;;;;;7.25;5.53;;;;;;;;;;5110901;28;20121;-67
2023/04/29 07:04:29;;;;;;;9.68;6.45;;;;;;;;;;5111000;28;20027;-68
2023/04/29 07:06:55;;;;;;;9.27;5.70;;;;;;;;;;5110461;28;20031;-66
2023/04/29 07:09:22;;;;;;;10.13;5.70;;;;;;;;;;5110670;28;20542;-67
2023/04/29 07:11:48;;;;;;;7.97;5.60;;;;;;;;;;5111016;28;20031;-67
2023/04/29 07:14:15;;;;;;;9.93;6.32;;;;;;;;;;5112253;28;20132;-66
2023/04/29 07:16:41;;;;;;;8.38;6.28;;;;;;;;;;5115026;28;20034;-66
2023/04/29 07:19:07;;;;;;;8.55;5.38;;;;;;;;;;5114875;28;20054;-66
2023/04/29 07:21:33;;;;;;;10.75;5.35;;;;;;;;;;5114144;28;20038;-66
2023/04/29 07:24:01;;;;;;;8.40;5.97;;;;;;;;;;5114657;28;20024;-66
2023/04/29 07:26:27;;;;;;;12.07;5.72;;;;;;;;;;5113302;28;20023;-65
2023/04/29 07:28:53;;;;;;;9.48;6.25;;;;;;;;;;5114252;28;20024;-66
2023/04/29 07:31:20;;;;;;;8.15;4.80;;;;;;;;;;5114166;28;20066;-65
2023/04/29 07:33:46;;;;;;;8.30;5.15;;;;;;;;;;5114314;28;20038;-65
2023/04/29 07:36:12;;;;;;;14.38;5.53;;;;;;;;;;5113219;28;20027;-65
2023/04/29 07:38:39;;;;;;;8.48;5.50;;;;;;;;;;5115543;27;20020;-65
2023/04/29 07:41:05;;;;;;;16.45;5.72;;;;;;;;;;5124927;27;20028;-65
2023/04/29 07:43:31;;;;;;;12.88;6.05;;;;;;;;;;5114079;28;20019;-65
2023/04/29 07:45:57;;;;;;;13.45;5.38;;;;;;;;;;5129282;27;20098;-67
2023/04/29 07:48:23;;;;;;;8.68;6.00;;;;;;;;;;5134171;27;20100;-65
2023/04/29 07:50:49;;;;;;;11.05;4.97;;;;;;;;;;5134510;27;20031;-67
2023/04/29 07:53:16;;;;;;;17.30;5.38;;;;;;;;;;5134188;27;20035;-67
2023/04/29 07:55:42;;;;;;;12.00;4.88;;;;;;;;;;5114860;27;20046;-67
2023/04/29 07:58:08;;;;;;;11.13;5.00;;;;;;;;;;5113441;28;20435;-67
2023/04/29 08:00:34;;;;;;;6.88;4.50;;;;;;;;;;5113472;28;20115;-66
2023/04/29 08:03:00;;;;;;;7.60;4.80;;;;;;;;;;5113805;28;20098;-64
2023/04/29 08:05:26;;;;;;;8.23;4.97;;;;;;;;;;5113529;27;20073;-64
2023/04/29 08:07:52;;;;;;;10.63;4.50;;;;;;;;;;5113517;27;20026;-64
2023/04/29 08:10:18;;;;;;;7.13;5.18;;;;;;;;;;5112082;28;20024;-65
2023/04/29 08:12:48;;;;;;;13.65;6.05;;;;;;;;;;5113716;28;20030;-65
2023/04/29 08:15:14;;;;;;;8.23;4.93;;;;;;;;;;5111989;28;20016;-65
2023/04/29 08:17:40;;;;;;;7.03;4.53;;;;;;;;;;5112681;28;20493;-66
2023/04/29 08:20:07;;;;;;;13.27;4.00;;;;;;;;;;5112825;28;20087;-65
2023/04/29 08:22:33;;;;;;;7.20;4.28;;;;;;;;;;5112731;28;20378;-67
2023/04/29 08:25:01;;;;;;;7.72;4.72;;;;;;;;;;5112244;28;20125;-67
2023/04/29 08:27:27;;;;;;;10.32;4.80;;;;;;;;;;5113261;28;20020;-67
2023/04/29 08:29:54;;;;;;;11.25;4.47;;;;;;;;;;5113039;28;20031;-67
2023/04/29 08:32:21;;;;;;;9.82;3.95;;;;;;;;;;5112977;28;20385;-67
2023/04/29 08:34:47;;;;;;;7.25;4.57;;;;;;;;;;5112936;28;20107;-67
2023/04/29 08:37:14;;;;;;;5.30;3.83;;;;;;;;;;5113021;28;20114;-66
2023/04/29 08:39:42;;;;;;;6.45;4.03;;;;;;;;;;5113339;28;20157;-67
2023/04/29 08:42:11;;;;;;;11.82;4.57;;;;;;;;;;5112801;28;20106;-66
2023/04/29 08:44:37;;;;;;;11.13;5.07;;;;;;;;;;5112907;28;20027;-66
2023/04/29 08:47:03;;;;;;;10.40;5.30;;;;;;;;;;5111023;28;20036;-65
2023/04/29 08:49:31;;;;;;;8.80;5.40;;;;;;;;;;5110499;28;20020;-65
2023/04/29 08:51:57;;;;;;;11.10;6.88;;;;;;;;;;5110494;28;20142;-66
2023/04/29 08:54:23;;;;;;;10.15;6.00;;;;;;;;;;5099760;28;20539;-66
2023/04/29 08:56:51;;;;;;;9.43;5.93;;;;;;;;;;5111198;28;20031;-66
2023/04/29 08:59:17;;;;;;;11.95;6.40;;;;;;;;;;5107850;28;20092;-66
2023/04/29 09:01:48;;;;;;;11.23;6.57;;;;;;;;;;5109179;28;20098;-64
2023/04/29 09:04:17;;;;;;;9.52;6.00;;;;;;;;;;5109343;28;20028;-64
2023/04/29 09:06:43;;;;;;;13.73;6.72;;;;;;;;;;5108167;28;20024;-65
2023/04/29 09:09:10;;;;;;;12.05;6.03;;;;;;;;;;5106975;28;20495;-64
2023/04/29 09:11:36;;;;;;;10.30;6.35;;;;;;;;;;5106742;28;20035;-64
2023/04/29 09:14:07;;;;;;;6.45;5.15;;;;;;;;;;5106329;27;20019;-64
2023/04/29 09:16:36;;;;;;;13.63;6.32;;;;;;;;;;5107330;28;20055;-65
2023/04/29 09:19:02;;;;;;;8.95;5.70;;;;;;;;;;5107817;28;20077;-65
2023/04/29 09:21:32;;;;;;;10.10;5.95;;;;;;;;;;5106336;28;20028;-65
2023/04/29 09:23:59;;;;;;;9.38;4.70;;;;;;;;;;5106832;28;20119;-64
2023/04/29 09:26:25;;;;;;;10.68;5.55;;;;;;;;;;5106234;28;20036;-65
2023/04/29 09:29:14;;;;;;;9.07;5.13;;;;;;;;;;5109930;28;20027;-64
2023/04/29 09:31:41;;;;;;;8.02;5.30;;;;;;;;;;5110253;28;20074;-64
2023/04/29 09:34:07;;;;;;;8.55;4.80;;;;;;;;;;5110650;28;20065;-63
2023/04/29 09:36:40;;;;;;;9.95;5.20;;;;;;;;;;5110476;28;20106;-64
2023/04/29 09:39:10;;;;;;;7.60;4.97;;;;;;;;;;5110723;28;20031;-64
2023/04/29 09:41:37;;;;;;;9.35;5.60;;;;;;;;;;5111813;28;20059;-64
2023/04/29 09:44:04;;;;;;;9.90;5.25;;;;;;;;;;5110008;28;20027;-64
2023/04/29 09:46:31;;;;;;;8.13;4.80;;;;;;;;;;5111281;28;20506;-64
2023/04/29 09:48:57;;;;;;;10.77;5.82;;;;;;;;;;5109237;28;20491;-64
2023/04/29 09:51:23;;;;;;;6.93;4.60;;;;;;;;;;5109465;28;20040;-64
2023/04/29 09:53:49;;;;;;;10.07;4.75;;;;;;;;;;5110726;28;20301;-64
2023/04/29 09:56:15;;;;;;;10.30;5.07;;;;;;;;;;5110971;28;20031;-64
2023/04/29 09:58:42;;;;;;;11.20;4.85;;;;;;;;;;5111685;28;20062;-64
2023/04/29 10:01:09;;;;;;;9.77;5.05;;;;;;;;;;5111277;28;20027;-64
2023/04/29 10:03:36;;;;;;;10.65;5.57;;;;;;;;;;5111459;28;20153;-64
2023/04/29 10:06:03;;;;;;;9.60;5.38;;;;;;;;;;5111187;28;20023;-64
2023/04/29 10:08:30;;;;;;;8.07;5.30;;;;;;;;;;5111231;28;20031;-64
2023/04/29 10:11:00;;;;;;;9.60;4.80;;;;;;;;;;5111438;28;20032;-64
2023/04/29 10:13:27;;;;;;;8.20;4.72;;;;;;;;;;5111404;28;20506;-64
2023/04/29 10:15:58;;;;;;;8.35;4.88;;;;;;;;;;5111343;28;20031;-64
2023/04/29 10:18:35;;;;;;;5.97;4.97;;;;;;;;;;5111057;28;20020;-64
2023/04/29 10:21:02;;;;;;;6.35;4.38;;;;;;;;;;5110791;28;20063;-64
2023/04/29 10:23:29;;;;;;;7.22;4.32;;;;;;;;;;5111315;28;20024;-64
2023/04/29 10:25:57;;;;;;;8.07;4.97;;;;;;;;;;5111168;28;20028;-64
2023/04/29 10:28:23;;;;;;;6.38;4.68;;;;;;;;;;5110957;28;20072;-64
2023/04/29 10:30:53;;;;;;;9.52;5.13;;;;;;;;;;5111213;28;20035;-64
2023/04/29 10:33:22;;;;;;;9.57;4.88;;;;;;;;;;5110327;28;20039;-64
2023/04/29 10:35:48;;;;;;;8.25;5.75;;;;;;;;;;5109785;28;20031;-64
2023/04/29 10:38:23;;;;;;;8.02;5.22;;;;;;;;;;5111310;28;20031;-64
2023/04/29 10:40:51;;;;;;;10.20;6.00;;;;;;;;;;5110797;28;20069;-64
2023/04/29 10:43:22;;;;;;;8.00;5.35;;;;;;;;;;5110169;28;20058;-64
2023/04/29 10:45:48;;;;;;;7.30;5.28;;;;;;;;;;5109170;28;20473;-64
2023/04/29 10:48:14;;;;;;;8.38;5.50;;;;;;;;;;5109975;28;20051;-64
2023/04/29 10:50:46;;;;;;;7.47;5.50;;;;;;;;;;5113829;28;20028;-64
2023/04/29 10:53:15;;;;;;;9.20;6.15;;;;;;;;;;5111340;28;20026;-64
2023/04/29 10:55:42;;;;;;;10.25;6.80;;;;;;;;;;5114526;28;20052;-64
2023/04/29 10:58:26;;;;;;;9.73;5.38;;;;;;;;;;5113324;28;20488;-64
2023/04/29 11:00:52;;;;;;;8.65;5.30;;;;;;;;;;5100879;28;20028;-64
2023/04/29 11:03:37;;;;;;;7.22;5.25;;;;;;;;;;5113709;28;20076;-64
2023/04/29 11:06:08;;;;;;;9.07;5.80;;;;;;;;;;5113885;28;20052;-64
2023/04/29 11:08:38;;;;;;;10.82;6.28;;;;;;;;;;5114082;28;20065;-64
2023/04/29 11:11:05;;;;;;;7.72;5.55;;;;;;;;;;5112687;28;20055;-63
2023/04/29 11:13:33;;;;;;;6.65;5.63;;;;;;;;;;5114383;28;20089;-64
2023/04/29 11:16:06;;;;;;;9.52;6.72;;;;;;;;;;5114680;28;20048;-64
2023/04/29 11:18:33;;;;;;;7.53;6.00;;;;;;;;;;5114393;28;20024;-64
2023/04/29 11:21:05;;;;;;;9.45;6.47;;;;;;;;;;5113471;28;20122;-64
2023/04/29 11:23:35;;;;;;;11.60;7.82;;;;;;;;;;5114380;28;20468;-64
2023/04/29 11:26:01;;;;;;;8.73;6.22;;;;;;;;;;5114143;28;20024;-66
2023/04/29 11:28:27;;;;;;;9.88;6.68;;;;;;;;;;5114338;28;20076;-64
2023/04/29 11:30:54;;;;;;;10.00;6.53;;;;;;;;;;5113730;28;20036;-64
2023/04/29 11:33:20;;;;;;;6.68;5.70;;;;;;;;;;5113826;28;20354;-64
2023/04/29 11:35:46;;;;;;;8.43;6.57;;;;;;;;;;5114566;28;20035;-64
2023/04/29 11:38:12;;;;;;;9.10;5.63;;;;;;;;;;5113921;28;20019;-64
2023/04/29 11:40:42;;;;;;;8.00;6.35;;;;;;;;;;5113919;28;20076;-64
2023/04/29 11:43:08;;;;;;;8.18;6.28;;;;;;;;;;5113924;28;20034;-64
2023/04/29 11:45:39;;;;;;;8.63;6.82;;;;;;;;;;5112948;28;20024;-64
2023/04/29 11:48:06;;;;;;;12.00;6.93;;;;;;;;;;5113292;28;20089;-64
2023/04/29 11:50:32;;;;;;;10.60;7.43;;;;;;;;;;5113842;28;20038;-63
2023/04/29 11:52:58;;;;;;;9.50;7.40;;;;;;;;;;5113614;28;20065;-64
2023/04/29 11:55:25;;;;;;;7.53;6.15;;;;;;;;;;5113543;28;20016;-64
2023/04/29 11:57:52;;;;;;;11.90;8.65;;;;;;;;;;5113789;28;20451;-64
2023/04/29 12:00:18;;;;;;;11.18;7.90;;;;;;;;;;5113412;28;20106;-64
2023/04/29 12:02:45;;;;;;;11.25;8.68;;;;;;;;;;5113534;28;20030;-64
2023/04/29 12:05:15;;;;;;;11.05;6.97;;;;;;;;;;5112941;28;20032;-64
2023/04/29 12:07:41;;;;;;;9.00;7.18;;;;;;;;;;5113631;28;20524;-64
2023/04/29 12:10:08;;;;;;;11.93;8.20;;;;;;;;;;5112536;28;20102;-64
2023/04/29 12:12:35;;;;;;;12.85;8.40;;;;;;;;;;5113583;28;20055;-64
2023/04/29 12:15:02;;;;;;;9.25;7.18;;;;;;;;;;5113246;28;20031;-64
2023/04/29 12:17:28;;;;;;;10.13;8.90;;;;;;;;;;5113410;28;20028;-64
2023/04/29 12:19:54;;;;;;;8.95;6.68;;;;;;;;;;5112128;27;20032;-65
2023/04/29 12:22:20;;;;;;;10.82;7.22;;;;;;;;;;5113111;28;20083;-64
2023/04/29 12:24:47;;;;;;;10.45;8.50;;;;;;;;;;5112352;28;20023;-64
2023/04/29 12:27:13;;;;;;;9.70;8.70;;;;;;;;;;5112747;28;20040;-64
2023/04/29 12:29:42;;;;;;;9.52;8.45;;;;;;;;;;5112915;28;20026;-64
2023/04/29 12:32:12;;;;;;;10.35;8.55;;;;;;;;;;5112874;28;20110;-63
2023/04/29 12:34:39;;;;;;;11.77;9.40;;;;;;;;;;5112555;28;20027;-64
2023/04/29 12:37:05;;;;;;;12.02;8.38;;;;;;;;;;5112020;28;20376;-64
2023/04/29 12:39:32;;;;;;;9.43;8.30;;;;;;;;;;5112429;28;20398;-64
2023/04/29 12:41:58;;;;;;;9.68;8.63;;;;;;;;;;5111310;28;20195;-64
2023/04/29 12:44:25;;;;;;;9.48;8.15;;;;;;;;;;5111258;28;20020;-64
2023/04/29 12:46:52;;;;;;;10.10;9.10;;;;;;;;;;5112313;28;20080;-64
2023/04/29 12:49:18;;;;;;;22.50;11.25;;;;;;;;;;5112445;28;20027;-64
2023/04/29 12:51:44;;;;;;;9.32;8.15;;;;;;;;;;5112650;28;20031;-64
2023/04/29 12:54:10;;;;;;;12.75;8.95;;;;;;;;;;5112172;28;20443;-64
2023/04/29 12:56:37;;;;;;;14.05;7.95;;;;;;;;;;5112786;28;20024;-64
2023/04/29 12:59:07;;;;;;;12.02;9.70;;;;;;;;;;5112303;28;20027;-64
2023/04/29 13:01:33;;;;;;;11.65;9.20;;;;;;;;;;5112428;28;20355;-64
2023/04/29 13:03:59;;;;;;;11.75;7.25;;;;;;;;;;5111319;28;20038;-64
2023/04/29 13:06:25;;;;;;;11.15;9.30;;;;;;;;;;5112349;28;20023;-64
2023/04/29 13:08:51;;;;;;;12.32;7.72;;;;;;;;;;5112781;28;20031;-64
2023/04/29 13:11:17;;;;;;;9.02;8.10;;;;;;;;;;5111414;28;20039;-64
2023/04/29 13:13:43;;;;;;;9.73;7.55;;;;;;;;;;5112244;28;20365;-64
2023/04/29 13:16:10;;;;;;;12.05;10.38;;;;;;;;;;5111829;28;20024;-64
2023/04/29 13:18:38;;;;;;;10.77;7.90;;;;;;;;;;5112326;28;20032;-65
2023/04/29 13:21:04;;;;;;;12.20;10.90;;;;;;;;;;5111777;28;20035;-64
2023/04/29 13:23:30;;;;;;;10.88;8.32;;;;;;;;;;5112065;28;20055;-64
2023/04/29 13:25:56;;;;;;;10.98;9.43;;;;;;;;;;5112049;28;20028;-64
2023/04/29 13:28:22;;;;;;;10.73;8.88;;;;;;;;;;5112008;28;20019;-64
2023/04/29 13:30:49;;;;;;;12.88;9.15;;;;;;;;;;5111759;28;20055;-65
2023/04/29 13:33:15;;;;;;;11.30;9.50;;;;;;;;;;5111773;28;20035;-64
2023/04/29 13:35:41;;;;;;;11.73;9.90;;;;;;;;;;5111950;28;20399;-64
2023/04/29 13:38:07;;;;;;;9.90;8.48;;;;;;;;;;5111637;28;20114;-64
2023/04/29 13:40:33;;;;;;;13.07;11.32;;;;;;;;;;5111872;28;20020;-64
2023/04/29 13:43:00;;;;;;;14.52;12.88;;;;;;;;;;5111783;28;20065;-64
2023/04/29 13:45:26;;;;;;;11.27;8.63;;;;;;;;;;5111914;28;20039;-64
2023/04/29 13:47:51;;;;;;;15.60;12.65;;;;;;;;;;5112104;28;20087;-64
2023/04/29 13:50:17;;;;;;;15.10;12.10;;;;;;;;;;5111264;28;20376;-64
2023/04/29 13:52:43;;;;;;;14.20;12.70;;;;;;;;;;5111633;28;20020;-64
2023/04/29 13:55:10;;;;;;;16.90;15.15;;;;;;;;;;5111344;28;20035;-65
2023/04/29 13:57:36;;;;;;;10.43;8.65;;;;;;;;;;5111353;28;20088;-64
2023/04/29 14:00:01;;;;;;;10.02;8.30;;;;;;;;;;5111136;28;20412;-64
2023/04/29 14:02:28;;;;;;;15.32;13.73;;;;;;;;;;5111582;28;20156;-64
2023/04/29 14:04:54;;;;;;;16.55;14.88;;;;;;;;;;5111748;28;20028;-65
2023/04/29 14:07:20;;;;;;;13.27;10.55;;;;;;;;;;5111438;28;20027;-65
2023/04/29 14:09:46;;;;;;;14.27;12.30;;;;;;;;;;5111380;28;20570;-64
2023/04/29 14:12:12;;;;;;;10.48;9.48;;;;;;;;;;5111246;28;20437;-64
2023/04/29 14:14:38;;;;;;;8.10;7.20;;;;;;;;;;5111395;28;20027;-64
2023/04/29 14:17:04;;;;;;;11.50;9.70;;;;;;;;;;5111087;28;20050;-64
2023/04/29 14:19:30;;;;;;;9.07;8.13;;;;;;;;;;5111239;28;20020;-64
2023/04/29 14:21:56;;;;;;;8.77;7.03;;;;;;;;;;5111613;28;20038;-64
2023/04/29 14:24:22;;;;;;;16.85;15.10;;;;;;;;;;5115140;28;20020;-65
2023/04/29 14:26:48;;;;;;;10.77;9.65;;;;;;;;;;5115592;28;20028;-65
2023/04/29 14:29:14;;;;;;;11.32;9.73;;;;;;;;;;5115154;28;20073;-65
2023/04/29 14:31:40;;;;;;;17.13;15.32;;;;;;;;;;5115512;28;20067;-65
2023/04/29 14:34:06;;;;;;;11.95;9.93;;;;;;;;;;5115264;28;20020;-65
2023/04/29 14:36:32;;;;;;;12.45;11.07;;;;;;;;;;5115466;28;20458;-65